ESSBESOK

Guest
Details From ESSB - BROMMA
To ESOK - Karlstad
Flight Number -
Tags generated
Created
Modified
Stats Distance 141 nm / 261 km
Max Altitude 18,800 ft / 5,730 m
Waypoints 3
Social Downloads 1
Likes 0
Share VATSIM

Download

Looking for another format? Having issues loading an existing format? Contact us
Advertisement - Login to hide

Notes

Basic altitude profile: - Ascent Rate: 2500ft/min - Ascent Speed: 250kts - Cruise Altitude: 35000ft - Cruise Speed: 420kts - Descent Rate: 1500ft/min - Descent Speed: 250kts

Route

ESSB TORVA ESOK

ID Type Via Altitude Latitude Longitude Leg Dist Tot Dist Heading (true) Name
O ESSB APT - 0 ft / 0 m 59.35439˚ 17.94160˚ - 0 nm - BROMMA
TORVA FIX - 18,800 ft / 5,730 m 59.41244˚ 16.21197˚ 53 nm 53 nm 275° / 273° -
O ESOK APT - 0 ft / 0 m 59.44863˚ 13.33854˚ 87 nm 140 nm 273° / 270° Karlstad

Altitude Profile

Advertisement - Login to hide

ESSB

Details ICAO ESSB (BMA)
Name BROMMA
Region Sweden
Timezone Europe/Stockholm (UTC+1.0)
Stats Elevation 47 ft / 14 m (AMSL)
Location 59.354389° 17.941604°
Runways 1
Magnetic Variation 6.051° E

METAR

ESSB 162220Z AUTO 35008KT 9999 OVC009/// 00/M01 Q1006

Decode

TAF

Not found

Departure Runways

ID Width Length Bearing (true) Bearing (mag) Surface Threshold Offset Overrun Length
12 148 ft / 45 m 6,201 ft / 1,890 m 125.06° 119.01° Asphalt 381 ft / 116 m 0 ft / 0 m
30 148 ft / 45 m 6,201 ft / 1,890 m 305.09° 299.04° Asphalt 361 ft / 110 m 0 ft / 0 m

ESOK

Details ICAO ESOK (KSD)
Name Karlstad
Region Sweden
Timezone Europe/Stockholm (UTC+1.0)
Stats Elevation 352 ft / 107 m (AMSL)
Location 59.448625° 13.338536°
Runways 2
Magnetic Variation 4.256° E

METAR

ESOK 162220Z AUTO 34008KT 9999 NCD M06/M07 Q1009

Decode

TAF

Not found

Destination Runways

ID Width Length Bearing (true) Bearing (mag) Surface Threshold Offset Overrun Length
03 148 ft / 45 m 8,239 ft / 2,511 m 25.61° 21.35° Asphalt 0 ft / 0 m 100 ft / 30 m
03L 170 ft / 52 m 1,833 ft / 559 m 26.12° 21.86° Dirt 0 ft / 0 m 0 ft / 0 m
21 148 ft / 45 m 8,239 ft / 2,511 m 205.63° 201.37° Asphalt 0 ft / 0 m 100 ft / 30 m
21R 170 ft / 52 m 1,833 ft / 559 m 206.12° 201.86° Dirt 0 ft / 0 m 0 ft / 0 m

Approach Navaids

Runway Type Ident Frequency Range Bearing (true) Bearing (mag) Slope Elevation
03 Localiser SOK 109.35 MHz 18 nm / 33 km 25.63° 21.38° - 352 ft / 107 m (AMSL)
03 Glidescope SOK 109.35 MHz 10 nm / 19 km 25.62° 21.36° 3.00° 352 ft / 107 m (AMSL)
21 Localiser NOK 110.70 MHz 18 nm / 33 km 205.62° 201.37° - 352 ft / 107 m (AMSL)
21 Glidescope NOK 110.70 MHz 10 nm / 19 km 205.62° 201.36° 3.00° 352 ft / 107 m (AMSL)

Popular Alternatives